createdAt,value
2019-05-17T00:01:07.588Z,98420.29
2019-05-17T00:03:38.676Z,98410.90
2019-05-17T00:06:10.002Z,98415.07
2019-05-17T00:08:40.820Z,98410.08
2019-05-17T00:11:11.657Z,98409.89
2019-05-17T00:13:42.337Z,98401.48
2019-05-17T00:16:13.653Z,98404.18
2019-05-17T00:18:46.295Z,98402.69
2019-05-17T00:21:17.053Z,98399.79
2019-05-17T00:23:47.950Z,98390.55
2019-05-17T00:26:18.869Z,98393.95
2019-05-17T00:28:49.620Z,98389.47
2019-05-17T00:31:20.530Z,98380.86
2019-05-17T00:33:51.297Z,98378.94
2019-05-17T00:36:22.160Z,98380.79
2019-05-17T00:38:52.900Z,98379.70
2019-05-17T00:41:23.783Z,98375.44
2019-05-17T00:43:56.789Z,98378.41
2019-05-17T00:46:27.199Z,98373.96
2019-05-17T00:48:58.061Z,98375.28
2019-05-17T00:51:28.820Z,98363.19
2019-05-17T00:54:00.481Z,98363.88
2019-05-17T00:56:31.337Z,98367.58
2019-05-17T00:59:02.020Z,98363.45
2019-05-17T01:01:32.892Z,98358.45
2019-05-17T01:04:03.730Z,98355.17
2019-05-17T01:06:34.628Z,98349.43
2019-05-17T01:09:07.802Z,98349.63
2019-05-17T01:11:38.802Z,98340.55
2019-05-17T01:14:09.732Z,98344.80
2019-05-17T01:16:40.709Z,98345.28
2019-05-17T01:19:11.506Z,98338.07
2019-05-17T01:21:42.355Z,98337.89
2019-05-17T01:24:14.274Z,98331.00
2019-05-17T01:26:46.889Z,98330.02
2019-05-17T01:29:17.824Z,98331.09
2019-05-17T01:31:48.904Z,98330.14
2019-05-17T01:34:19.700Z,98330.14
2019-05-17T01:36:50.469Z,98325.44
2019-05-17T01:39:21.620Z,98323.36
2019-05-17T01:41:52.411Z,98324.63
2019-05-17T01:44:23.374Z,98323.57
2019-05-17T01:46:54.181Z,98327.72
2019-05-17T01:49:27.122Z,98323.61
2019-05-17T01:51:58.013Z,98319.99
2019-05-17T01:54:28.887Z,98328.27
2019-05-17T01:56:59.674Z,98326.27
2019-05-17T01:59:30.317Z,98314.00
2019-05-17T02:02:07.134Z,98318.34
2019-05-17T02:04:38.416Z,98323.95
2019-05-17T02:07:09.306Z,98322.06
2019-05-17T02:09:41.688Z,98317.81
2019-05-17T02:12:12.759Z,98313.43
2019-05-17T02:14:43.835Z,98304.13
2019-05-17T02:17:14.664Z,98309.27
2019-05-17T02:19:46.529Z,98310.63
2019-05-17T02:22:17.576Z,98309.39
2019-05-17T02:24:49.297Z,98305.30
2019-05-17T02:27:22.010Z,98306.14
2019-05-17T02:29:53.929Z,98302.59
2019-05-17T02:32:25.118Z,98303.53
2019-05-17T02:34:56.116Z,98304.68
2019-05-17T02:37:27.187Z,98312.65
2019-05-17T02:40:03.024Z,98303.84
2019-05-17T02:42:33.007Z,98301.72
2019-05-17T02:45:03.544Z,98301.72
2019-05-17T02:47:34.484Z,98308.27
2019-05-17T02:50:06.029Z,98305.74
2019-05-17T02:52:36.928Z,98306.34
2019-05-17T02:55:07.766Z,98307.95
2019-05-17T02:57:38.742Z,98308.55
2019-05-17T03:00:13.009Z,98310.59
2019-05-17T03:02:43.461Z,98304.20
2019-05-17T03:05:15.165Z,98303.58
2019-05-17T03:07:46.094Z,98304.13
2019-05-17T03:10:27.480Z,98306.30
2019-05-17T03:12:52.933Z,98306.84
2019-05-17T03:15:23.656Z,98307.05
2019-05-17T03:17:54.650Z,98307.59
2019-05-17T03:20:25.408Z,98307.72
2019-05-17T03:22:56.218Z,98306.84
2019-05-17T03:25:27.132Z,98303.73
2019-05-17T03:27:57.965Z,98301.80
2019-05-17T03:30:28.801Z,98300.25
2019-05-17T03:33:06.171Z,98292.56
2019-05-17T03:35:37.665Z,98295.98
2019-05-17T03:38:06.960Z,98291.25
2019-05-17T03:41:03.602Z,98297.48
2019-05-17T03:43:13.531Z,98295.01
2019-05-17T03:45:42.987Z,98299.55
2019-05-17T03:48:13.868Z,98294.18
2019-05-17T03:50:44.683Z,98292.70
2019-05-17T03:53:15.884Z,98297.69
2019-05-17T03:55:46.772Z,98302.23
2019-05-17T03:58:17.645Z,98302.14
2019-05-17T04:00:48.420Z,98302.31
2019-05-17T04:03:22.687Z,98303.31
2019-05-17T04:05:52.879Z,98311.72
2019-05-17T04:08:25.061Z,98307.41
2019-05-17T04:10:55.949Z,98309.44
2019-05-17T04:13:26.826Z,98310.05
2019-05-17T04:15:57.611Z,98313.59
2019-05-17T04:18:28.290Z,98313.59
2019-05-17T04:20:59.099Z,98310.89
2019-05-17T04:23:33.544Z,98303.29
2019-05-17T04:26:04.276Z,98305.84
2019-05-17T04:28:35.076Z,98318.79
2019-05-17T04:31:05.971Z,98315.31
2019-05-17T04:33:37.827Z,98316.42
2019-05-17T04:36:08.753Z,98325.50
2019-05-17T04:38:43.349Z,98319.41
2019-05-17T04:41:13.352Z,98321.06
2019-05-17T04:43:44.316Z,98325.50
2019-05-17T04:46:14.830Z,98326.05
2019-05-17T04:48:45.741Z,98323.20
2019-05-17T04:51:17.739Z,98319.39
2019-05-17T04:53:48.496Z,98319.59
2019-05-17T04:56:22.461Z,98326.35
2019-05-17T04:58:54.393Z,98333.30
2019-05-17T05:01:24.286Z,98330.59
2019-05-17T05:03:55.215Z,98326.91
2019-05-17T05:06:26.846Z,98326.52
2019-05-17T05:08:57.605Z,98327.84
2019-05-17T05:11:28.518Z,98327.96
2019-05-17T05:14:02.441Z,98321.44
2019-05-17T05:16:32.711Z,98320.12
2019-05-17T05:19:03.556Z,98322.48
2019-05-17T05:21:34.456Z,98322.43
2019-05-17T05:24:05.287Z,98317.68
2019-05-17T05:26:35.919Z,98317.06
2019-05-17T05:29:06.907Z,98317.23
2019-05-17T05:31:37.820Z,98318.17
2019-05-17T05:34:08.622Z,98307.41
2019-05-17T05:36:41.866Z,98305.03
2019-05-17T05:39:12.663Z,98297.80
2019-05-17T05:41:43.431Z,98306.93
2019-05-17T05:44:14.297Z,98306.09
2019-05-17T05:46:45.069Z,98299.07
2019-05-17T05:49:16.762Z,98300.30
2019-05-17T05:51:47.561Z,98298.00
2019-05-17T05:54:18.315Z,98294.28
2019-05-17T05:56:49.214Z,98290.80
2019-05-17T05:59:22.314Z,98293.01
2019-05-17T06:01:52.710Z,98279.59
2019-05-17T06:04:23.658Z,98280.88
2019-05-17T06:06:54.320Z,98284.71
2019-05-17T06:09:25.261Z,98284.30
2019-05-17T06:11:56.944Z,98276.48
2019-05-17T06:14:27.699Z,98281.78
2019-05-17T06:16:58.368Z,98276.55
2019-05-17T06:19:31.398Z,98277.66
2019-05-17T06:22:02.757Z,98273.34
2019-05-17T06:24:34.783Z,98271.70
2019-05-17T06:27:05.712Z,98272.09
2019-05-17T06:29:36.458Z,98267.66
2019-05-17T06:32:07.345Z,98266.97
2019-05-17T06:34:38.129Z,98262.09
2019-05-17T06:37:08.915Z,98258.64
2019-05-17T06:39:41.836Z,98256.30
2019-05-17T06:42:12.207Z,98265.08
2019-05-17T06:44:42.781Z,98259.98
2019-05-17T06:47:13.448Z,98254.20
2019-05-17T06:49:44.391Z,98253.67
2019-05-17T06:52:15.404Z,98252.19
2019-05-17T06:54:46.049Z,98254.69
2019-05-17T06:57:17.704Z,98256.75
2019-05-17T06:59:48.404Z,98267.41
2019-05-17T07:02:19.779Z,98266.67
2019-05-17T07:04:51.012Z,98267.77
2019-05-17T07:07:30.478Z,98258.32
2019-05-17T07:10:01.050Z,98253.16
2019-05-17T07:12:31.851Z,98248.63
2019-05-17T07:15:02.632Z,98255.87
2019-05-17T07:17:33.509Z,98253.84
2019-05-17T07:20:04.453Z,98254.10
2019-05-17T07:22:35.176Z,98253.04
2019-05-17T07:25:06.836Z,98250.86
2019-05-17T07:27:41.734Z,98246.33
2019-05-17T07:30:10.797Z,98236.44
2019-05-17T07:32:41.490Z,98238.50
2019-05-17T07:35:12.845Z,98240.36
2019-05-17T07:37:43.450Z,98243.06
2019-05-17T07:40:14.545Z,98236.52
2019-05-17T07:42:45.488Z,98231.93
2019-05-17T07:45:16.558Z,98230.15
2019-05-17T07:47:49.460Z,98222.30
2019-05-17T07:50:20.221Z,98223.36
2019-05-17T07:52:50.884Z,98224.92
2019-05-17T07:55:23.072Z,98219.61
2019-05-17T07:57:54.872Z,98212.84
2019-05-17T08:00:25.744Z,98210.91
2019-05-17T08:02:59.870Z,98200.38
2019-05-17T08:05:30.292Z,98194.98
2019-05-17T08:08:01.026Z,98195.58
2019-05-17T08:10:31.895Z,98190.61
2019-05-17T08:13:02.587Z,98186.08
2019-05-17T08:15:33.456Z,98177.89
2019-05-17T08:18:04.224Z,98182.78
2019-05-17T08:20:35.996Z,98192.85
2019-05-17T08:23:06.800Z,98182.59
2019-05-17T08:25:49.636Z,98184.22
2019-05-17T08:28:11.013Z,98185.83
2019-05-17T08:30:42.032Z,98190.98
2019-05-17T08:33:12.838Z,98187.17
2019-05-17T08:35:43.601Z,98189.06
2019-05-17T08:38:14.365Z,98192.05
2019-05-17T08:40:45.128Z,98179.05
2019-05-17T08:43:15.937Z,98177.13
2019-05-17T08:45:46.504Z,98189.50
2019-05-17T08:48:17.354Z,98182.55
2019-05-17T08:50:49.486Z,98176.72
2019-05-17T08:53:20.336Z,98173.79
2019-05-17T08:55:51.130Z,98173.96
2019-05-17T08:58:21.851Z,98168.81
2019-05-17T09:00:52.538Z,98170.86
2019-05-17T09:03:23.453Z,98165.91
2019-05-17T09:05:54.006Z,98172.70
2019-05-17T09:08:25.787Z,98173.62
2019-05-17T09:10:56.564Z,98167.79
2019-05-17T09:13:27.278Z,98171.73
2019-05-17T09:16:01.970Z,98171.75
2019-05-17T09:18:32.701Z,98170.63
2019-05-17T09:21:03.466Z,98168.84
2019-05-17T09:23:34.249Z,98171.94
2019-05-17T09:26:05.106Z,98172.37
2019-05-17T09:28:36.004Z,98163.77
2019-05-17T09:31:06.912Z,98162.69
2019-05-17T09:33:37.712Z,98163.23
2019-05-17T09:36:10.125Z,98165.40
2019-05-17T09:38:40.912Z,98161.92
2019-05-17T09:41:11.784Z,98162.77
2019-05-17T09:43:42.653Z,98160.05
2019-05-17T09:46:13.539Z,98163.30
2019-05-17T09:48:46.922Z,98159.31
2019-05-17T09:51:16.740Z,98152.12
2019-05-17T09:53:49.597Z,98156.48
2019-05-17T09:56:20.618Z,98158.92
2019-05-17T09:58:52.728Z,98152.86
2019-05-17T10:01:23.328Z,98152.17
2019-05-17T10:03:54.302Z,98147.28
2019-05-17T10:06:24.992Z,98153.66
2019-05-17T10:08:55.829Z,98149.23
2019-05-17T10:11:26.604Z,98151.66
2019-05-17T10:13:59.011Z,98154.37
2019-05-17T10:16:30.760Z,98149.84
2019-05-17T10:19:01.610Z,98150.30
2019-05-17T10:21:32.570Z,98146.08
2019-05-17T10:24:03.867Z,98142.06
2019-05-17T10:26:34.658Z,98144.84
2019-05-17T10:29:05.532Z,98140.71
2019-05-17T10:31:36.160Z,98138.81
2019-05-17T10:34:09.453Z,98147.39
2019-05-17T10:36:40.156Z,98138.70
2019-05-17T10:39:11.201Z,98145.18
2019-05-17T10:41:41.964Z,98145.89
2019-05-17T10:44:12.942Z,98147.36
2019-05-17T10:46:43.817Z,98144.38
2019-05-17T10:49:14.695Z,98141.69
2019-05-17T10:51:45.627Z,98140.71
2019-05-17T10:54:16.489Z,98141.86
2019-05-17T10:56:50.093Z,98146.73
2019-05-17T10:59:20.363Z,98147.24
2019-05-17T11:01:51.122Z,98143.37
2019-05-17T11:04:21.993Z,98144.66
2019-05-17T11:06:52.785Z,98145.50
2019-05-17T11:09:23.738Z,98140.14
2019-05-17T11:11:54.773Z,98137.76
2019-05-17T11:14:25.541Z,98141.40
2019-05-17T11:16:57.689Z,98142.77
2019-05-17T11:19:28.502Z,98139.25
2019-05-17T11:21:59.181Z,98138.05
2019-05-17T11:24:29.978Z,98130.78
2019-05-17T11:27:00.846Z,98136.80
2019-05-17T11:29:31.672Z,98135.92
2019-05-17T11:32:02.481Z,98137.73
2019-05-17T11:34:33.286Z,98137.08
2019-05-17T11:37:03.946Z,98137.80
2019-05-17T11:39:34.638Z,98131.47
2019-05-17T11:42:05.709Z,98132.08
2019-05-17T11:44:36.456Z,98125.57
2019-05-17T11:47:07.293Z,98128.55
2019-05-17T11:49:38.065Z,98126.97
2019-05-17T11:52:08.796Z,98128.58
2019-05-17T11:54:39.566Z,98125.57
2019-05-17T11:57:12.309Z,98121.44
2019-05-17T11:59:42.868Z,98119.80
2019-05-17T12:02:13.750Z,98124.30
2019-05-17T12:04:44.447Z,98123.95
2019-05-17T12:07:15.120Z,98116.34
2019-05-17T12:09:45.917Z,98115.17
2019-05-17T12:12:16.824Z,98115.67
2019-05-17T12:14:47.520Z,98118.48
2019-05-17T12:17:18.677Z,98111.89
2019-05-17T12:19:49.465Z,98110.47
2019-05-17T12:22:20.425Z,98107.84
2019-05-17T12:24:51.065Z,98106.22
2019-05-17T12:27:22.083Z,98105.02
2019-05-17T12:29:52.850Z,98103.51
2019-05-17T12:32:23.826Z,98103.34
2019-05-17T12:34:54.620Z,98102.05
2019-05-17T12:37:25.460Z,98102.52
2019-05-17T12:39:56.424Z,98104.87
2019-05-17T12:42:27.265Z,98101.59
2019-05-17T12:44:58.166Z,98098.05
2019-05-17T12:47:29.040Z,98099.76
2019-05-17T12:49:59.853Z,98095.42
2019-05-17T12:52:30.840Z,98102.25
2019-05-17T12:55:01.614Z,98105.06
2019-05-17T12:57:32.433Z,98098.23
2019-05-17T13:00:03.285Z,98101.09
2019-05-17T13:02:34.120Z,98097.02
2019-05-17T13:05:05.319Z,98099.12
2019-05-17T13:07:36.071Z,98096.30
2019-05-17T13:10:07.848Z,98099.34
2019-05-17T13:12:38.665Z,98098.53
2019-05-17T13:15:09.948Z,98095.48
2019-05-17T13:17:40.781Z,98095.98
2019-05-17T13:20:12.173Z,98094.59
2019-05-17T13:22:42.950Z,98095.83
2019-05-17T13:25:13.915Z,98090.17
2019-05-17T13:27:44.811Z,98091.56
2019-05-17T13:30:15.902Z,98092.19
2019-05-17T13:32:46.687Z,98093.81
2019-05-17T13:35:17.990Z,98095.01
2019-05-17T13:37:48.871Z,98094.13
2019-05-17T13:40:20.020Z,98092.28
2019-05-17T13:42:50.905Z,98098.59
2019-05-17T13:45:21.870Z,98097.08
2019-05-17T13:47:52.617Z,98099.27
2019-05-17T13:50:23.856Z,98093.05
2019-05-17T13:52:54.764Z,98090.55
2019-05-17T13:55:25.810Z,98094.70
2019-05-17T13:57:56.513Z,98091.15
2019-05-17T14:00:27.483Z,98093.48
2019-05-17T14:02:58.313Z,98095.02
2019-05-17T14:05:29.367Z,98091.61
2019-05-17T14:08:00.185Z,98085.88
2019-05-17T14:10:32.191Z,98087.88
2019-05-17T14:13:03.138Z,98085.70
2019-05-17T14:15:34.061Z,98086.81
2019-05-17T14:18:04.946Z,98082.27
2019-05-17T14:20:35.922Z,98083.30
2019-05-17T14:23:06.817Z,98081.44
2019-05-17T14:25:38.079Z,98078.67
2019-05-17T14:28:11.305Z,98083.47
2019-05-17T14:30:41.795Z,98088.07
2019-05-17T14:33:12.657Z,98082.02
2019-05-17T14:35:44.801Z,98075.48
2019-05-17T14:38:15.491Z,98081.06
2019-05-17T14:41:05.770Z,98081.76
2019-05-17T14:43:19.665Z,98084.84
2019-05-17T14:45:50.525Z,98080.47
2019-05-17T14:48:21.369Z,98090.58
2019-05-17T14:50:52.259Z,98087.62
2019-05-17T14:53:22.972Z,98089.95
2019-05-17T14:55:53.698Z,98088.47
2019-05-17T14:58:24.396Z,98087.98
2019-05-17T15:00:55.221Z,98090.81
2019-05-17T15:03:26.478Z,98088.25
2019-05-17T15:05:57.182Z,98090.13
2019-05-17T15:08:28.054Z,98093.15
2019-05-17T15:10:58.822Z,98090.09
2019-05-17T15:13:29.698Z,98084.17
2019-05-17T15:16:00.493Z,98086.08
2019-05-17T15:18:31.261Z,98088.55
2019-05-17T15:21:02.250Z,98095.08
2019-05-17T15:23:33.043Z,98090.57
2019-05-17T15:26:03.949Z,98081.48
2019-05-17T15:28:35.495Z,98093.29
2019-05-17T15:31:06.270Z,98089.77
2019-05-17T15:33:37.136Z,98089.78
2019-05-17T15:36:08.040Z,98091.18
2019-05-17T15:38:38.890Z,98094.08
2019-05-17T15:41:09.612Z,98093.03
2019-05-17T15:43:40.438Z,98089.52
2019-05-17T15:48:40.572Z,98086.70
2019-05-17T15:51:11.453Z,98087.14
2019-05-17T15:53:42.120Z,98092.75
2019-05-17T15:56:12.922Z,98086.50
2019-05-17T15:58:43.692Z,98095.84
2019-05-17T16:01:14.452Z,98088.89
2019-05-17T16:03:45.253Z,98087.59
2019-05-17T16:06:15.934Z,98082.86
2019-05-17T16:08:46.627Z,98086.43
2019-05-17T16:11:17.408Z,98083.94
2019-05-17T16:13:48.225Z,98084.26
2019-05-17T16:16:19.016Z,98083.95
2019-05-17T16:18:49.816Z,98084.81
2019-05-17T16:21:20.671Z,98088.30
2019-05-17T16:23:51.445Z,98083.97
2019-05-17T16:26:22.274Z,98079.63
2019-05-17T16:28:53.035Z,98083.09
2019-05-17T16:31:23.846Z,98080.87
2019-05-17T16:33:54.605Z,98084.27
2019-05-17T16:36:25.473Z,98078.90
2019-05-17T16:38:56.283Z,98090.11
2019-05-17T16:41:27.169Z,98082.14
2019-05-17T16:43:58.196Z,98079.45
2019-05-17T16:46:29.195Z,98083.00
2019-05-17T16:49:00.207Z,98087.84
2019-05-17T16:51:31.016Z,98092.27
2019-05-17T16:54:01.816Z,98096.09
2019-05-17T16:56:33.533Z,98097.74
2019-05-17T16:59:04.340Z,98102.63
2019-05-17T17:01:35.242Z,98099.81
2019-05-17T17:04:06.473Z,98101.90
2019-05-17T17:06:37.411Z,98098.52
2019-05-17T17:09:08.384Z,98095.33
2019-05-17T17:11:39.169Z,98102.44
2019-05-17T17:14:10.139Z,98099.53
2019-05-17T17:16:43.436Z,98107.92
2019-05-17T17:19:14.240Z,98096.98
2019-05-17T17:21:45.041Z,98104.34
2019-05-17T17:24:15.738Z,98100.61
2019-05-17T17:26:46.628Z,98105.67
2019-05-17T17:29:17.511Z,98109.55
2019-05-17T17:31:48.214Z,98110.97
2019-05-17T17:34:19.074Z,98113.63
2019-05-17T17:36:49.813Z,98114.13
2019-05-17T17:39:20.476Z,98107.16
2019-05-17T17:41:51.357Z,98111.16
2019-05-17T17:44:23.268Z,98112.45
2019-05-17T17:46:54.044Z,98104.63
2019-05-17T17:49:24.689Z,98110.25
2019-05-17T17:51:55.384Z,98106.19
2019-05-17T17:54:26.045Z,98101.97
2019-05-17T17:56:56.942Z,98100.56
2019-05-17T17:59:27.853Z,98099.66
2019-05-17T18:01:58.694Z,98101.23
2019-05-17T18:04:29.619Z,98100.53
2019-05-17T18:07:00.665Z,98094.99
2019-05-17T18:09:31.416Z,98096.66
2019-05-17T18:12:02.216Z,98092.39
2019-05-17T18:14:33.074Z,98091.61
2019-05-17T18:17:03.936Z,98089.66
2019-05-17T18:19:34.901Z,98087.58
2019-05-17T18:22:05.960Z,98093.55
2019-05-17T18:24:36.823Z,98091.09
2019-05-17T18:27:07.670Z,98093.75
2019-05-17T18:29:38.673Z,98094.26
2019-05-17T18:32:09.541Z,98092.16
2019-05-17T18:34:41.068Z,98102.05
2019-05-17T18:37:12.146Z,98100.24
2019-05-17T18:39:42.973Z,98099.00
2019-05-17T18:42:13.537Z,98097.91
2019-05-17T18:44:44.404Z,98093.85
2019-05-17T18:47:15.977Z,98095.23
2019-05-17T18:49:46.729Z,98092.40
2019-05-17T18:52:17.536Z,98101.28
2019-05-17T18:54:48.317Z,98107.20
2019-05-17T18:57:19.237Z,98116.45
2019-05-17T18:59:49.800Z,98118.84
2019-05-17T19:02:20.704Z,98113.06
2019-05-17T19:04:51.369Z,98115.55
2019-05-17T19:07:22.179Z,98123.89
2019-05-17T19:09:53.018Z,98123.95
2019-05-17T19:12:23.751Z,98124.11
2019-05-17T19:14:54.773Z,98123.44
2019-05-17T19:17:25.610Z,98127.90
2019-05-17T19:19:56.396Z,98125.04
2019-05-17T19:22:27.395Z,98133.45
2019-05-17T19:24:58.372Z,98140.30
2019-05-17T19:27:29.659Z,98139.61
2019-05-17T19:30:00.344Z,98142.16
2019-05-17T19:32:31.087Z,98139.94
2019-05-17T19:35:01.882Z,98145.44
2019-05-17T19:37:32.721Z,98148.53
2019-05-17T19:40:03.589Z,98153.91
2019-05-17T19:42:34.470Z,98151.27
2019-05-17T19:45:05.639Z,98149.31
2019-05-17T19:47:36.369Z,98146.61
2019-05-17T19:50:07.539Z,98157.88
2019-05-17T19:52:38.324Z,98163.36
2019-05-17T19:55:09.385Z,98163.82
2019-05-17T19:57:40.101Z,98162.35
2019-05-17T20:00:11.754Z,98169.33
2019-05-17T20:02:42.489Z,98163.09
2019-05-17T20:05:13.554Z,98166.46
2019-05-17T20:07:44.153Z,98169.73
2019-05-17T20:10:15.512Z,98177.50
2019-05-17T20:12:46.165Z,98174.39
2019-05-17T20:15:18.413Z,98175.52
2019-05-17T20:17:49.345Z,98184.92
2019-05-17T20:20:20.370Z,98187.03
2019-05-17T20:22:51.268Z,98185.14
2019-05-17T20:25:22.392Z,98189.12
2019-05-17T20:27:53.171Z,98189.13
2019-05-17T20:30:23.945Z,98191.20
2019-05-17T20:32:54.848Z,98197.23
2019-05-17T20:35:25.649Z,98207.33
2019-05-17T20:37:56.717Z,98213.38
2019-05-17T20:40:27.617Z,98210.05
2019-05-17T20:42:58.442Z,98214.56
2019-05-17T20:45:33.337Z,98213.95
2019-05-17T20:48:01.775Z,98218.11
2019-05-17T20:50:32.471Z,98215.03
2019-05-17T20:53:17.996Z,98221.88
2019-05-17T20:55:35.862Z,98213.59
2019-05-17T20:58:06.654Z,98217.13
2019-05-17T21:00:37.584Z,98219.14
2019-05-17T21:03:08.497Z,98215.41
2019-05-17T21:05:39.267Z,98220.25
2019-05-17T21:08:11.082Z,98225.02
2019-05-17T21:10:41.951Z,98221.07
2019-05-17T21:13:12.753Z,98217.79
2019-05-17T21:15:47.887Z,98225.10
2019-05-17T21:18:15.998Z,98226.17
2019-05-17T21:20:46.789Z,98219.73
2019-05-17T21:23:17.589Z,98219.44
2019-05-17T21:25:48.621Z,98223.86
2019-05-17T21:28:19.318Z,98225.01
2019-05-17T21:31:01.194Z,98218.72
2019-05-17T21:33:31.646Z,98219.73
2019-05-17T21:36:02.563Z,98216.47
2019-05-17T21:38:33.431Z,98218.67
2019-05-17T21:41:04.183Z,98217.09
2019-05-17T21:43:35.229Z,98222.83
2019-05-17T21:46:06.126Z,98217.75
2019-05-17T21:48:36.986Z,98216.14
2019-05-17T21:51:07.727Z,98214.83
2019-05-17T21:53:38.620Z,98218.86
2019-05-17T21:56:11.659Z,98215.61
2019-05-17T21:58:42.506Z,98213.47
2019-05-17T22:01:47.814Z,98211.06
2019-05-17T22:04:18.849Z,98208.34
2019-05-17T22:06:57.302Z,98211.60
2019-05-17T22:09:28.160Z,98211.06
2019-05-17T22:12:04.952Z,98203.77
2019-05-17T22:14:35.746Z,98205.41
2019-05-17T22:17:07.336Z,98207.59
2019-05-17T22:19:38.129Z,98212.48
2019-05-17T22:22:09.062Z,98205.41
2019-05-17T22:24:39.693Z,98207.05
2019-05-17T22:27:10.460Z,98213.59
2019-05-17T22:29:41.328Z,98206.80
2019-05-17T22:32:12.118Z,98210.10
2019-05-17T22:34:43.137Z,98216.06
2019-05-17T22:37:13.981Z,98213.09
2019-05-17T22:39:44.861Z,98209.28
2019-05-17T22:42:15.636Z,98208.21
2019-05-17T22:44:46.353Z,98204.39
2019-05-17T22:47:17.629Z,98206.03
2019-05-17T22:49:48.673Z,98206.36
2019-05-17T22:52:19.337Z,98199.30
2019-05-17T22:54:50.140Z,98198.73
2019-05-17T22:57:20.907Z,98196.30
2019-05-17T22:59:51.581Z,98196.54
2019-05-17T23:02:23.107Z,98198.75
2019-05-17T23:04:53.848Z,98202.27
2019-05-17T23:07:24.635Z,98203.06
2019-05-17T23:09:55.362Z,98198.98
2019-05-17T23:12:26.144Z,98197.89
2019-05-17T23:14:56.900Z,98189.77
2019-05-17T23:20:51.557Z,98197.67
2019-05-17T23:23:22.608Z,98191.68
2019-05-17T23:25:53.345Z,98189.55
2019-05-17T23:28:24.129Z,98188.50
2019-05-17T23:30:54.801Z,98198.20
2019-05-17T23:33:25.618Z,98194.42
2019-05-17T23:35:56.617Z,98193.88
2019-05-17T23:38:27.412Z,98196.87
2019-05-17T23:40:58.129Z,98197.97
2019-05-17T23:43:29.004Z,98201.73
2019-05-17T23:45:59.913Z,98203.09
2019-05-17T23:48:30.792Z,98204.75
2019-05-17T23:51:02.610Z,98203.36
2019-05-17T23:53:33.475Z,98201.47
2019-05-17T23:56:04.280Z,98206.91
2019-05-17T23:58:35.355Z,98205.28
